»·PEaware :: LBQ783 KHAF-KOXR

LBQ783 :: KHAF-KOXR

FLIGHT INFORMATION

Flight Status: Arrived
Operator: Unknown
More flights by this operator :: More flights under this callsign
Pilot: Walter H. (552)
Aircraft: BEECH AIRCRAFT SUPER KING AIR 350
(B350)
More flights by this aircraft type
Origin: KHAF Half Moon Bay
United States
Destination: KOXR Oxnard
United States
More flights between these airports :: More routes between these airports
Route: +OAK V107 PXN V113 ROM V485 HENER
File this flight plan on PilotEdge
Remarks:
Altitude:
(Current/Filed)
17,000ft
Speed:
(Current/Filed)
310kts
Departed: 10-Jul-20 08:31 PM
Arrived: 10-Jul-20 09:50 PM
Distance/Time
Traveled:
255nm/1:19
Distance/Time
To Go:
Arrived

Flight Plot

Page will automatically refresh every two minutes.

Flight plan parsing failed; only flown route is shown


Map Options




Map Legend


Flown Route
Filed Route
Departure Airport
Arrival Airport
Navaid (VOR, NDB)
Fix

Horizontal Profiles

Position Reports

Time Latitude Longitude Heading Altitude Ground
Speed
10-Jul-20 20:15 37.514515 -122.497107 301 47ft 0kts
10-Jul-20 20:16 37.514515 -122.497107 301 47ft 0kts
10-Jul-20 20:17 37.514515 -122.497107 301 47ft 0kts
10-Jul-20 20:18 37.514515 -122.497107 301 47ft 0kts
10-Jul-20 20:19 37.514515 -122.497107 301 47ft 0kts
10-Jul-20 20:20 37.514515 -122.497107 301 47ft 0kts
10-Jul-20 20:21 37.514515 -122.497107 301 47ft 0kts
10-Jul-20 20:22 37.514515 -122.497107 301 47ft 0kts
10-Jul-20 20:23 37.514515 -122.497107 301 47ft 0kts
10-Jul-20 20:24 37.514515 -122.497107 301 47ft 0kts
10-Jul-20 20:25 37.514515 -122.497107 301 47ft 0kts
10-Jul-20 20:26 37.514515 -122.497107 301 47ft 0kts
10-Jul-20 20:27 37.514131 -122.495860 126 47ft 9kts
10-Jul-20 20:28 37.510739 -122.492394 200 39ft 13kts
10-Jul-20 20:29 37.508751 -122.494964 227 35ft 8kts
10-Jul-20 20:30 37.517262 -122.506410 309 360ft 120kts
10-Jul-20 20:31 37.504082 -122.542776 212 2364ft 158kts
10-Jul-20 20:32 37.465949 -122.571332 212 4519ft 162kts
10-Jul-20 20:33 37.421013 -122.605914 213 5246ft 225kts
10-Jul-20 20:34 37.370679 -122.594596 132 7263ft 208kts
10-Jul-20 20:35 37.333412 -122.540764 132 8890ft 206kts
10-Jul-20 20:36 37.297548 -122.484065 125 10299ft 209kts
10-Jul-20 20:37 37.267242 -122.420953 120 11578ft 212kts
10-Jul-20 20:38 37.238953 -122.355124 120 12705ft 216kts
10-Jul-20 20:39 37.209751 -122.289249 131 13672ft 218kts
10-Jul-20 20:40 37.172272 -122.228459 131 14567ft 222kts
10-Jul-20 20:41 37.134369 -122.166399 131 15363ft 225kts
10-Jul-20 20:42 37.096206 -122.103895 134 16157ft 224kts
10-Jul-20 20:43 37.055869 -122.044973 134 16938ft 222kts
10-Jul-20 20:44 37.009351 -121.988593 139 17018ft 244kts
10-Jul-20 20:45 36.959025 -121.928198 137 17015ft 255kts
10-Jul-20 20:46 36.909074 -121.863881 126 17023ft 260kts
10-Jul-20 20:47 36.863987 -121.792019 129 17012ft 263kts
10-Jul-20 20:48 36.818513 -121.720176 129 17003ft 265kts
10-Jul-20 20:49 36.772751 -121.647884 129 16995ft 265kts
10-Jul-20 20:50 36.726971 -121.575764 129 16994ft 265kts
10-Jul-20 20:51 36.680977 -121.503482 129 16994ft 265kts
10-Jul-20 20:52 36.634985 -121.431356 129 16995ft 265kts
10-Jul-20 20:53 36.589019 -121.359606 129 16993ft 265kts
10-Jul-20 20:54 36.543029 -121.287687 129 16994ft 266kts
10-Jul-20 20:55 36.496846 -121.215653 129 16995ft 266kts
10-Jul-20 20:56 36.450730 -121.143888 129 16992ft 266kts
10-Jul-20 20:57 36.404362 -121.071898 130 16981ft 267kts
10-Jul-20 20:58 36.357746 -120.999678 130 16961ft 269kts
10-Jul-20 20:59 36.310810 -120.927118 130 16941ft 271kts
10-Jul-20 21:00 36.263520 -120.854169 130 16940ft 271kts
10-Jul-20 21:01 36.216332 -120.781529 130 16940ft 271kts
10-Jul-20 21:02 36.169092 -120.708964 130 16940ft 271kts
10-Jul-20 21:03 36.115127 -120.645624 148 16944ft 268kts
10-Jul-20 21:04 36.051989 -120.596504 149 16939ft 268kts
10-Jul-20 21:05 35.988652 -120.547565 149 16939ft 268kts
10-Jul-20 21:06 35.925350 -120.498757 149 16939ft 268kts
10-Jul-20 21:07 35.862382 -120.450305 149 16960ft 268kts
10-Jul-20 21:08 35.798929 -120.401569 149 16960ft 269kts
10-Jul-20 21:09 35.735488 -120.352934 149 16960ft 269kts
10-Jul-20 21:10 35.671791 -120.304195 149 16960ft 269kts
10-Jul-20 21:11 35.608136 -120.255581 149 16960ft 269kts
10-Jul-20 21:12 35.544273 -120.206902 149 16959ft 269kts
10-Jul-20 21:13 35.480590 -120.158453 149 16968ft 269kts
10-Jul-20 21:14 35.417116 -120.110256 149 16987ft 269kts
10-Jul-20 21:15 35.353375 -120.061944 149 17008ft 269kts
10-Jul-20 21:16 35.289720 -120.013800 149 17013ft 269kts
10-Jul-20 21:17 35.225930 -119.965623 149 17009ft 270kts
10-Jul-20 21:18 35.167628 -119.921677 149 17006ft 270kts
10-Jul-20 21:19 35.105057 -119.874597 149 16998ft 270kts
10-Jul-20 21:20 35.042960 -119.823186 146 16990ft 270kts
10-Jul-20 21:21 35.011787 -119.796852 146 16985ft 270kts
10-Jul-20 21:22 34.958099 -119.751544 146 16979ft 270kts
10-Jul-20 21:23 34.895471 -119.698789 145 16625ft 279kts
10-Jul-20 21:24 34.831148 -119.644706 145 15866ft 276kts
10-Jul-20 21:25 34.769094 -119.592622 145 14949ft 266kts
10-Jul-20 21:26 34.708874 -119.542172 145 14045ft 261kts
10-Jul-20 21:27 34.649401 -119.492441 145 13144ft 259kts
10-Jul-20 21:28 34.596612 -119.448355 144 12341ft 258kts
10-Jul-20 21:29 34.541095 -119.402076 145 11491ft 257kts
10-Jul-20 21:30 34.484215 -119.354745 145 10568ft 238kts
10-Jul-20 21:31 34.435832 -119.314450 146 9647ft 211kts
10-Jul-20 21:32 34.388363 -119.274213 146 8738ft 206kts
10-Jul-20 21:33 34.352929 -119.243714 146 8047ft 204kts
10-Jul-20 21:34 34.307976 -119.204452 146 7145ft 200kts
10-Jul-20 21:36 34.272158 -119.156800 90 6232ft 205kts
10-Jul-20 21:37 34.272636 -119.088049 91 5351ft 205kts
10-Jul-20 21:38 34.272936 -119.021598 91 4967ft 180kts
10-Jul-20 21:39 34.273390 -118.962521 91 4997ft 184kts
10-Jul-20 21:40 34.273792 -118.897136 90 4991ft 201kts
10-Jul-20 21:41 34.261961 -118.835054 158 4993ft 193kts
10-Jul-20 21:42 34.212352 -118.824062 174 4889ft 185kts
10-Jul-20 21:43 34.195482 -118.867207 277 4257ft 171kts
10-Jul-20 21:44 34.198559 -118.922700 269 3972ft 152kts
10-Jul-20 21:45 34.198993 -118.971355 269 3778ft 152kts
10-Jul-20 21:46 34.199463 -119.024440 270 2961ft 175kts
10-Jul-20 21:47 34.199884 -119.078267 270 1994ft 135kts
10-Jul-20 21:48 34.200181 -119.118654 271 1351ft 117kts
10-Jul-20 21:49 34.200574 -119.167675 269 548ft 148kts
10-Jul-20 21:50 34.200777 -119.204922 270 41ft 25kts
10-Jul-20 21:51 34.200020 -119.207071 157 38ft 0kts

Navigation Log

Ident Type
Flight plan parsing failed, navigation log unavailable